Time;durP1;ratioP1;P1;durP2;ratioP2;P2;SDS_P1;SDS_P2;PMS_P1;PMS_P2;Temp;Humidity;BMP_temperature;BMP_pressure;BME280_temperature;BME280_humidity;BME280_pressure;Samples;Min_cycle;Max_cycle;Signal;HPM_P1;HPM_P2
2022/12/27 00:04:26;;;;;;;3.38;1.13;;;4.90;99.90;;;;;;20790635;28;20393;-40
2022/12/27 00:14:27;;;;;;;2.03;0.93;;;4.80;99.90;;;;;;20779161;28;20350;-40
2022/12/27 00:24:28;;;;;;;7.40;1.40;;;5.00;99.90;;;;;;20766291;28;20406;-40
2022/12/27 00:34:29;;;;;;;3.35;1.23;;;5.10;99.90;;;;;;20769922;28;20146;-40
2022/12/27 00:44:30;;;;;;;4.90;1.02;;;5.20;99.90;;;;;;20757862;28;20065;-40
2022/12/27 00:54:31;;;;;;;13.05;1.52;;;5.30;99.90;;;;;;20756560;28;20077;-40
2022/12/27 01:04:32;;;;;;;3.40;0.95;;;5.50;99.90;;;;;;20743309;28;20151;-40
2022/12/27 01:14:33;;;;;;;7.60;2.42;;;5.50;99.90;;;;;;20756395;28;20073;-40
2022/12/27 01:24:34;;;;;;;5.55;1.25;;;5.50;99.90;;;;;;20752686;28;20041;-40
2022/12/27 01:34:35;;;;;;;8.35;1.67;;;5.40;99.90;;;;;;20753216;28;20049;-40
2022/12/27 01:44:42;;;;;;;3.03;0.93;;;5.30;99.90;;;;;;20745922;28;20341;-40
2022/12/27 01:54:43;;;;;;;3.55;1.15;;;5.40;99.90;;;;;;20744523;28;20222;-40
2022/12/27 02:04:45;;;;;;;2.25;0.50;;;5.50;99.90;;;;;;20742304;28;20077;-40
2022/12/27 02:14:48;;;;;;;9.80;2.25;;;5.40;99.90;;;;;;20752344;28;20504;-40
2022/12/27 02:25:26;;;;;;;4.43;2.03;;;5.40;99.90;;;;;;20746954;28;20069;-40
2022/12/27 02:35:49;;;;;;;3.95;1.70;;;5.40;99.90;;;;;;20741727;28;20862;-40
2022/12/27 02:57:07;;;;;;;6.03;2.38;;;5.10;99.90;;;;;;20756388;28;23755;-40
2022/12/27 03:07:34;;;;;;;2.85;1.55;;;4.90;99.90;;;;;;20741303;28;20180;-40
2022/12/27 03:17:43;;;;;;;21.93;2.37;;;4.80;99.90;;;;;;20727408;28;22367;-40
2022/12/27 03:33:11;;;;;;;3.90;1.63;;;4.80;99.90;;;;;;20758490;28;20057;-40
2022/12/27 03:38:12;;;;;;;4.88;1.85;;;4.70;99.90;;;;;;20755870;28;20759;-40
2022/12/27 03:48:18;;;;;;;5.10;1.88;;;4.80;99.90;;;;;;20765380;28;20269;-40
2022/12/27 03:58:19;;;;;;;2.50;1.03;;;4.80;99.90;;;;;;20764314;28;20139;-40
2022/12/27 04:39:19;;;;;;;4.30;1.25;;;4.50;99.90;;;;;;20729991;28;20988;-40
2022/12/27 05:20:24;;;;;;;2.28;0.90;;;4.50;99.90;;;;;;20781433;28;20359;-40
2022/12/27 05:30:25;;;;;;;9.10;1.10;;;4.40;99.90;;;;;;20773022;28;20058;-40
2022/12/27 05:40:26;;;;;;;6.47;2.92;;;4.40;99.90;;;;;;20772885;28;20095;-40
2022/12/27 05:50:27;;;;;;;3.65;0.90;;;4.40;99.90;;;;;;20778855;28;20095;-40
2022/12/27 06:00:28;;;;;;;4.93;1.90;;;4.40;99.90;;;;;;20768174;28;20087;-40
2022/12/27 06:10:29;;;;;;;5.32;1.92;;;4.40;99.90;;;;;;20770415;28;20037;-40
2022/12/27 06:20:30;;;;;;;3.40;1.48;;;4.30;99.90;;;;;;20775524;28;20045;-40
2022/12/27 06:30:31;;;;;;;3.60;1.40;;;4.30;99.90;;;;;;20768620;28;20100;-40
2022/12/27 06:40:32;;;;;;;5.38;1.63;;;4.30;99.90;;;;;;20777895;28;20508;-40
2022/12/27 06:50:35;;;;;;;5.90;2.33;;;4.30;99.90;;;;;;20777552;28;20048;-40
2022/12/27 07:00:36;;;;;;;5.30;2.40;;;4.40;99.90;;;;;;20766373;28;20141;-40
2022/12/27 07:10:37;;;;;;;7.18;4.15;;;4.30;99.90;;;;;;20768141;28;20091;-40
2022/12/27 07:20:38;;;;;;;3.55;1.70;;;4.40;99.90;;;;;;20779123;28;20445;-40
2022/12/27 07:30:40;;;;;;;6.85;2.42;;;4.40;99.90;;;;;;20765415;28;20377;-40
2022/12/27 07:40:41;;;;;;;10.15;2.58;;;4.50;99.90;;;;;;20782863;28;20111;-40
2022/12/27 07:50:42;;;;;;;4.05;1.55;;;4.60;99.90;;;;;;20775396;28;20042;-40
2022/12/27 08:00:48;;;;;;;2.95;1.30;;;4.50;99.90;;;;;;20783463;28;20037;-40
2022/12/27 08:10:49;;;;;;;15.88;2.05;;;4.50;99.90;;;;;;20752761;28;20092;-40
2022/12/27 08:20:50;;;;;;;3.92;1.80;;;4.40;99.90;;;;;;20767675;28;20053;-40
2022/12/27 08:30:51;;;;;;;5.75;1.83;;;4.40;99.90;;;;;;20753171;28;20188;-40
2022/12/27 08:40:52;;;;;;;3.88;1.52;;;4.40;99.90;;;;;;20766157;28;20054;-40
2022/12/27 08:50:53;;;;;;;3.72;1.55;;;4.50;99.90;;;;;;20738939;28;20045;-41
2022/12/27 09:00:54;;;;;;;6.00;2.42;;;4.70;99.90;;;;;;20712929;28;20136;-40
2022/12/27 09:10:55;;;;;;;4.60;1.85;;;4.80;99.90;;;;;;20703445;28;20152;-40
2022/12/27 09:21:03;;;;;;;6.00;2.22;;;4.90;99.90;;;;;;20691895;28;20091;-40
2022/12/27 09:31:04;;;;;;;5.07;2.72;;;5.00;99.90;;;;;;20687891;28;20611;-40
2022/12/27 09:41:18;;;;;;;6.32;2.45;;;5.00;99.90;;;;;;20724651;28;20665;-40
2022/12/27 09:51:25;;;;;;;5.65;2.63;;;4.90;99.90;;;;;;20708279;28;20472;-40
2022/12/27 10:01:39;;;;;;;3.80;1.80;;;4.90;99.90;;;;;;20721704;28;20069;-40
2022/12/27 10:11:50;;;;;;;7.28;3.05;;;4.90;99.90;;;;;;20701324;28;20898;-40
2022/12/27 10:22:17;;;;;;;4.97;2.92;;;4.80;99.90;;;;;;20705770;28;20128;-40
2022/12/27 10:32:18;;;;;;;6.55;2.97;;;5.00;99.90;;;;;;20688032;28;21670;-40
2022/12/27 10:42:37;;;;;;;7.32;3.30;;;5.20;99.90;;;;;;20724423;28;20125;-40
2022/12/27 10:52:38;;;;;;;15.20;3.67;;;5.50;99.90;;;;;;20725007;28;20905;-40
2022/12/27 11:02:54;;;;;;;7.80;2.60;;;5.80;99.90;;;;;;20758816;28;20087;-40
2022/12/27 11:13:05;;;;;;;5.55;2.05;;;6.20;99.90;;;;;;20771539;28;20049;-41
2022/12/27 11:23:09;;;;;;;6.60;2.08;;;6.50;99.90;;;;;;20772691;28;20966;-40
2022/12/27 11:33:21;;;;;;;4.88;2.28;;;7.40;99.90;;;;;;20760431;28;20053;-41
2022/12/27 11:43:26;;;;;;;12.10;2.25;;;7.60;99.90;;;;;;20775727;28;20045;-41
2022/12/27 11:53:58;;;;;;;8.00;3.70;;;7.30;99.90;;;;;;20785618;28;20033;-41
2022/12/27 12:04:17;;;;;;;3.40;1.92;;;7.20;99.90;;;;;;20780470;28;20033;-41
2022/12/27 12:14:18;;;;;;;11.18;3.58;;;7.00;99.90;;;;;;20789916;28;20888;-41
2022/12/27 12:24:22;;;;;;;5.95;2.53;;;6.90;99.90;;;;;;20788791;28;20073;-41
2022/12/27 12:34:51;;;;;;;5.13;1.98;;;7.10;99.90;;;;;;20782558;28;20490;-40
2022/12/27 12:44:58;;;;;;;6.10;2.60;;;7.20;99.90;;;;;;20787227;28;20776;-41
2022/12/27 12:55:21;;;;;;;11.48;2.22;;;7.20;99.90;;;;;;20775042;28;20052;-40
2022/12/27 13:05:33;;;;;;;3.25;1.77;;;7.10;99.90;;;;;;20775377;28;20894;-41
2022/12/27 13:15:57;;;;;;;6.25;1.73;;;7.30;99.90;;;;;;20785592;28;20314;-41
2022/12/27 13:26:31;;;;;;;12.13;2.63;;;7.30;99.90;;;;;;20779236;28;20056;-40
2022/12/27 13:36:46;;;;;;;7.38;2.20;;;7.50;99.90;;;;;;20771948;28;21912;-40
2022/12/27 13:46:57;;;;;;;3.75;2.22;;;7.60;99.90;;;;;;20779679;28;20045;-41
2022/12/27 13:57:23;;;;;;;5.20;2.53;;;7.60;99.90;;;;;;20775088;28;20041;-41
2022/12/27 14:07:52;;;;;;;4.13;1.73;;;7.50;99.90;;;;;;20757276;28;20916;-41
2022/12/27 14:17:53;;;;;;;6.32;1.88;;;7.30;99.90;;;;;;20778872;28;20684;-40
2022/12/27 14:28:29;;;;;;;4.10;2.50;;;7.30;99.90;;;;;;20776239;28;20049;-41
2022/12/27 14:38:48;;;;;;;3.97;1.70;;;7.30;99.90;;;;;;20754896;28;21872;-41
2022/12/27 14:49:10;;;;;;;4.43;1.92;;;7.30;99.90;;;;;;20770093;28;20439;-41
2022/12/27 14:59:29;;;;;;;4.20;2.35;;;7.30;99.90;;;;;;20769147;28;21905;-41
2022/12/27 15:09:58;;;;;;;5.35;2.03;;;7.20;99.90;;;;;;20762839;28;20918;-41
2022/12/27 15:20:15;;;;;;;10.50;3.03;;;7.20;99.90;;;;;;20780721;28;20037;-41
2022/12/27 15:30:24;;;;;;;4.40;2.13;;;7.10;99.90;;;;;;20787088;28;20878;-40
2022/12/27 15:40:28;;;;;;;5.38;2.85;;;7.00;99.90;;;;;;20768695;28;20194;-40
2022/12/27 15:50:57;;;;;;;4.32;1.92;;;6.90;99.90;;;;;;20781933;28;20786;-41
2022/12/27 16:01:16;;;;;;;5.07;2.97;;;6.90;99.90;;;;;;20789426;28;20111;-41
2022/12/27 16:11:17;;;;;;;4.80;2.35;;;6.80;99.90;;;;;;20779324;28;20193;-41
2022/12/27 16:21:26;;;;;;;6.65;2.72;;;6.90;99.90;;;;;;20775091;28;20864;-41
2022/12/27 16:31:30;;;;;;;5.75;2.70;;;6.90;99.90;;;;;;20781770;28;20097;-41
2022/12/27 16:42:00;;;;;;;6.90;2.95;;;7.00;99.90;;;;;;20781068;28;20115;-41
2022/12/27 16:52:21;;;;;;;9.23;2.00;;;7.00;99.90;;;;;;20782095;28;20243;-41
2022/12/27 17:02:44;;;;;;;3.42;1.45;;;6.90;99.90;;;;;;20785138;28;21842;-40
2022/12/27 17:12:53;;;;;;;3.67;1.85;;;6.80;99.90;;;;;;20782103;28;20049;-41
2022/12/27 17:22:56;;;;;;;11.80;2.67;;;6.90;99.90;;;;;;20779026;28;20083;-41
2022/12/27 17:33:15;;;;;;;8.48;2.78;;;6.90;99.90;;;;;;20782212;28;20099;-41
2022/12/27 18:04:26;;;;;;;5.15;2.45;;;7.00;99.90;;;;;;20779660;28;20923;-41
2022/12/27 18:14:32;;;;;;;5.15;2.35;;;7.00;99.90;;;;;;20773522;28;21115;-41
2022/12/27 18:24:33;;;;;;;42.03;3.80;;;7.00;99.90;;;;;;20778650;28;20091;-41
2022/12/27 18:34:44;;;;;;;3.72;2.03;;;7.00;99.90;;;;;;20774120;28;20045;-40
2022/12/27 18:44:49;;;;;;;4.38;1.40;;;6.90;99.90;;;;;;20776660;28;20037;-40
2022/12/27 18:54:51;;;;;;;2.90;1.52;;;6.90;99.90;;;;;;20783881;28;20042;-41
2022/12/27 19:05:17;;;;;;;5.30;1.90;;;6.90;99.90;;;;;;20785642;28;20645;-41
2022/12/27 19:15:26;;;;;;;3.53;1.92;;;6.80;99.90;;;;;;20796008;28;20467;-40
2022/12/27 19:25:33;;;;;;;7.32;2.22;;;6.70;99.90;;;;;;20790603;28;20825;-41
2022/12/27 19:35:34;;;;;;;4.75;1.90;;;6.60;99.90;;;;;;20782228;28;20099;-40
2022/12/27 19:45:35;;;;;;;4.25;1.63;;;6.60;99.90;;;;;;20791618;28;20107;-40
2022/12/27 19:55:36;;;;;;;5.13;2.30;;;6.70;99.90;;;;;;20780272;28;20049;-41
2022/12/27 20:05:37;;;;;;;3.95;1.83;;;6.60;99.90;;;;;;20725772;28;20450;-40
2022/12/27 20:15:38;;;;;;;2.78;1.50;;;6.60;99.90;;;;;;20694001;28;20046;-40
2022/12/27 20:25:42;;;;;;;6.30;3.35;;;6.60;99.90;;;;;;20734847;28;20064;-41
2022/12/27 20:35:44;;;;;;;3.72;1.95;;;6.70;99.90;;;;;;20721326;28;20132;-41
2022/12/27 20:45:46;;;;;;;6.93;2.60;;;6.70;99.90;;;;;;20722284;28;20528;-41
2022/12/27 20:55:56;;;;;;;8.63;2.17;;;6.80;99.90;;;;;;20714760;28;20771;-41
2022/12/27 21:06:03;;;;;;;6.28;2.47;;;6.80;99.90;;;;;;20720866;28;20117;-40
2022/12/27 21:16:08;;;;;;;3.45;1.60;;;6.80;99.90;;;;;;20726382;28;20112;-41
2022/12/27 21:26:15;;;;;;;2.53;1.17;;;6.80;99.90;;;;;;20712615;28;20505;-40
2022/12/27 21:36:23;;;;;;;9.30;2.97;;;6.90;99.90;;;;;;20713178;28;20120;-40
2022/12/27 21:46:29;;;;;;;5.60;2.60;;;6.80;99.90;;;;;;20735881;28;20123;-41
2022/12/27 21:56:30;;;;;;;10.63;2.80;;;6.90;99.90;;;;;;20733256;28;20909;-40
2022/12/27 22:06:38;;;;;;;8.77;2.30;;;6.90;99.90;;;;;;20749718;28;20037;-41
2022/12/27 22:16:39;;;;;;;4.03;1.95;;;6.90;99.90;;;;;;20752556;28;20077;-40
2022/12/27 22:26:41;;;;;;;9.48;4.65;;;6.90;99.90;;;;;;20744183;28;20099;-40
2022/12/27 22:36:42;;;;;;;3.40;1.45;;;6.60;99.90;;;;;;20746160;28;20447;-40
2022/12/27 22:46:43;;;;;;;5.18;2.70;;;6.40;99.90;;;;;;20743694;28;20072;-40
2022/12/27 22:56:44;;;;;;;2.85;1.55;;;6.30;99.90;;;;;;20745044;28;20427;-40
2022/12/27 23:06:45;;;;;;;4.43;2.50;;;6.40;99.90;;;;;;20752348;28;20405;-40
2022/12/27 23:16:48;;;;;;;6.22;2.05;;;6.40;99.90;;;;;;20746712;28;20044;-40
2022/12/27 23:26:49;;;;;;;2.60;1.60;;;6.40;99.90;;;;;;20748067;28;20050;-40
2022/12/27 23:36:50;;;;;;;2.65;1.45;;;6.50;99.90;;;;;;20745321;28;20044;-40
2022/12/27 23:46:51;;;;;;;4.50;1.85;;;6.60;99.90;;;;;;20763255;28;20033;-40
2022/12/27 23:56:52;;;;;;;7.35;4.43;;;6.60;99.90;;;;;;20757410;28;20048;-40
